sensor_id;sensor_type;location;lat;lon;timestamp;P1;durP1;ratioP1;P2;durP2;ratioP2
5452;SDS011;2749;53.576;9.822;2022-07-11T00:01:43;3.17;;;1.73;;
5452;SDS011;2749;53.576;9.822;2022-07-11T00:04:09;3.70;;;1.57;;
5452;SDS011;2749;53.576;9.822;2022-07-11T00:06:35;2.40;;;1.90;;
5452;SDS011;2749;53.576;9.822;2022-07-11T00:09:01;3.90;;;2.27;;
5452;SDS011;2749;53.576;9.822;2022-07-11T00:11:27;6.17;;;1.77;;
5452;SDS011;2749;53.576;9.822;2022-07-11T00:13:53;3.43;;;1.47;;
5452;SDS011;2749;53.576;9.822;2022-07-11T00:16:19;3.80;;;1.47;;
5452;SDS011;2749;53.576;9.822;2022-07-11T00:18:45;2.40;;;1.10;;
5452;SDS011;2749;53.576;9.822;2022-07-11T00:21:11;3.07;;;1.40;;
5452;SDS011;2749;53.576;9.822;2022-07-11T00:23:37;4.17;;;1.90;;
5452;SDS011;2749;53.576;9.822;2022-07-11T00:26:03;1.90;;;1.70;;
5452;SDS011;2749;53.576;9.822;2022-07-11T00:28:29;2.70;;;1.30;;
5452;SDS011;2749;53.576;9.822;2022-07-11T00:30:55;3.53;;;1.90;;
5452;SDS011;2749;53.576;9.822;2022-07-11T00:33:21;3.93;;;1.83;;
5452;SDS011;2749;53.576;9.822;2022-07-11T00:35:47;1.50;;;1.40;;
5452;SDS011;2749;53.576;9.822;2022-07-11T00:38:13;1.40;;;1.20;;
5452;SDS011;2749;53.576;9.822;2022-07-11T00:40:39;3.00;;;1.70;;
5452;SDS011;2749;53.576;9.822;2022-07-11T00:43:06;4.77;;;2.27;;
5452;SDS011;2749;53.576;9.822;2022-07-11T00:45:32;1.83;;;1.73;;
5452;SDS011;2749;53.576;9.822;2022-07-11T00:47:58;8.10;;;2.60;;
5452;SDS011;2749;53.576;9.822;2022-07-11T00:50:24;13.17;;;1.90;;
5452;SDS011;2749;53.576;9.822;2022-07-11T00:52:51;5.63;;;2.10;;
5452;SDS011;2749;53.576;9.822;2022-07-11T00:55:17;3.63;;;1.67;;
5452;SDS011;2749;53.576;9.822;2022-07-11T00:57:43;11.37;;;2.47;;
5452;SDS011;2749;53.576;9.822;2022-07-11T01:00:09;5.57;;;1.80;;
5452;SDS011;2749;53.576;9.822;2022-07-11T01:02:36;4.50;;;3.40;;
5452;SDS011;2749;53.576;9.822;2022-07-11T01:05:02;4.10;;;1.90;;
5452;SDS011;2749;53.576;9.822;2022-07-11T01:07:29;3.00;;;1.97;;
5452;SDS011;2749;53.576;9.822;2022-07-11T01:09:55;4.10;;;1.73;;
5452;SDS011;2749;53.576;9.822;2022-07-11T01:12:21;3.10;;;1.70;;
5452;SDS011;2749;53.576;9.822;2022-07-11T01:14:53;5.00;;;1.87;;
5452;SDS011;2749;53.576;9.822;2022-07-11T01:17:19;3.60;;;1.90;;
5452;SDS011;2749;53.576;9.822;2022-07-11T01:19:45;6.33;;;1.87;;
5452;SDS011;2749;53.576;9.822;2022-07-11T01:22:13;7.20;;;2.20;;
5452;SDS011;2749;53.576;9.822;2022-07-11T01:24:40;2.37;;;2.10;;
5452;SDS011;2749;53.576;9.822;2022-07-11T01:27:07;2.40;;;1.50;;
5452;SDS011;2749;53.576;9.822;2022-07-11T01:29:33;4.93;;;2.47;;
5452;SDS011;2749;53.576;9.822;2022-07-11T01:31:58;4.77;;;2.27;;
5452;SDS011;2749;53.576;9.822;2022-07-11T01:34:24;4.33;;;2.00;;
5452;SDS011;2749;53.576;9.822;2022-07-11T01:36:50;2.23;;;1.37;;
5452;SDS011;2749;53.576;9.822;2022-07-11T01:39:16;4.33;;;2.07;;
5452;SDS011;2749;53.576;9.822;2022-07-11T01:41:42;3.37;;;1.90;;
5452;SDS011;2749;53.576;9.822;2022-07-11T01:44:08;3.07;;;1.70;;
5452;SDS011;2749;53.576;9.822;2022-07-11T01:46:34;3.97;;;1.73;;
5452;SDS011;2749;53.576;9.822;2022-07-11T01:49:00;2.00;;;1.90;;
5452;SDS011;2749;53.576;9.822;2022-07-11T01:51:27;4.10;;;2.30;;
5452;SDS011;2749;53.576;9.822;2022-07-11T01:53:53;3.10;;;2.00;;
5452;SDS011;2749;53.576;9.822;2022-07-11T01:56:20;2.60;;;1.90;;
5452;SDS011;2749;53.576;9.822;2022-07-11T01:58:46;4.03;;;1.73;;
5452;SDS011;2749;53.576;9.822;2022-07-11T02:01:12;2.60;;;1.90;;
5452;SDS011;2749;53.576;9.822;2022-07-11T02:03:38;2.97;;;1.80;;
5452;SDS011;2749;53.576;9.822;2022-07-11T02:06:04;3.87;;;1.70;;
5452;SDS011;2749;53.576;9.822;2022-07-11T02:08:30;7.00;;;3.50;;
5452;SDS011;2749;53.576;9.822;2022-07-11T02:10:56;3.30;;;1.83;;
5452;SDS011;2749;53.576;9.822;2022-07-11T02:13:22;6.80;;;1.70;;
5452;SDS011;2749;53.576;9.822;2022-07-11T02:15:48;2.27;;;2.07;;
5452;SDS011;2749;53.576;9.822;2022-07-11T02:18:16;3.53;;;1.60;;
5452;SDS011;2749;53.576;9.822;2022-07-11T02:20:42;3.00;;;1.83;;
5452;SDS011;2749;53.576;9.822;2022-07-11T02:23:10;1.60;;;1.50;;
5452;SDS011;2749;53.576;9.822;2022-07-11T02:25:37;2.70;;;1.77;;
5452;SDS011;2749;53.576;9.822;2022-07-11T02:28:09;1.73;;;1.63;;
5452;SDS011;2749;53.576;9.822;2022-07-11T02:30:36;3.50;;;2.10;;
5452;SDS011;2749;53.576;9.822;2022-07-11T02:33:02;3.60;;;1.60;;
5452;SDS011;2749;53.576;9.822;2022-07-11T02:35:28;3.80;;;1.67;;
5452;SDS011;2749;53.576;9.822;2022-07-11T02:37:54;2.83;;;2.43;;
5452;SDS011;2749;53.576;9.822;2022-07-11T02:40:20;4.93;;;4.40;;
5452;SDS011;2749;53.576;9.822;2022-07-11T02:42:46;1.90;;;1.80;;
5452;SDS011;2749;53.576;9.822;2022-07-11T02:45:12;3.97;;;1.73;;
5452;SDS011;2749;53.576;9.822;2022-07-11T02:47:38;2.67;;;1.70;;
5452;SDS011;2749;53.576;9.822;2022-07-11T02:50:06;1.60;;;1.50;;
5452;SDS011;2749;53.576;9.822;2022-07-11T02:52:32;3.07;;;1.30;;
5452;SDS011;2749;53.576;9.822;2022-07-11T02:54:58;6.57;;;1.90;;
5452;SDS011;2749;53.576;9.822;2022-07-11T02:57:24;3.57;;;2.03;;
5452;SDS011;2749;53.576;9.822;2022-07-11T02:59:50;2.90;;;1.70;;
5452;SDS011;2749;53.576;9.822;2022-07-11T03:02:16;2.20;;;1.43;;
5452;SDS011;2749;53.576;9.822;2022-07-11T03:04:42;2.27;;;1.97;;
5452;SDS011;2749;53.576;9.822;2022-07-11T03:07:08;5.00;;;1.83;;
5452;SDS011;2749;53.576;9.822;2022-07-11T03:09:34;3.97;;;2.27;;
5452;SDS011;2749;53.576;9.822;2022-07-11T03:11:59;2.50;;;2.30;;
5452;SDS011;2749;53.576;9.822;2022-07-11T03:14:26;6.37;;;2.10;;
5452;SDS011;2749;53.576;9.822;2022-07-11T03:16:52;3.10;;;1.80;;
5452;SDS011;2749;53.576;9.822;2022-07-11T03:19:19;5.80;;;2.20;;
5452;SDS011;2749;53.576;9.822;2022-07-11T03:21:45;3.10;;;1.67;;
5452;SDS011;2749;53.576;9.822;2022-07-11T03:24:11;2.03;;;1.70;;
5452;SDS011;2749;53.576;9.822;2022-07-11T03:26:37;4.03;;;2.03;;
5452;SDS011;2749;53.576;9.822;2022-07-11T03:29:03;3.10;;;2.40;;
5452;SDS011;2749;53.576;9.822;2022-07-11T03:31:29;2.13;;;1.97;;
5452;SDS011;2749;53.576;9.822;2022-07-11T03:33:55;3.90;;;2.00;;
5452;SDS011;2749;53.576;9.822;2022-07-11T03:36:21;4.53;;;4.20;;
5452;SDS011;2749;53.576;9.822;2022-07-11T03:38:47;3.83;;;1.97;;
5452;SDS011;2749;53.576;9.822;2022-07-11T03:41:13;2.63;;;2.43;;
5452;SDS011;2749;53.576;9.822;2022-07-11T03:43:39;2.93;;;2.27;;
5452;SDS011;2749;53.576;9.822;2022-07-11T03:46:05;6.47;;;2.87;;
5452;SDS011;2749;53.576;9.822;2022-07-11T03:48:31;3.20;;;2.17;;
5452;SDS011;2749;53.576;9.822;2022-07-11T03:50:57;4.30;;;2.30;;
5452;SDS011;2749;53.576;9.822;2022-07-11T03:53:23;3.80;;;2.30;;
5452;SDS011;2749;53.576;9.822;2022-07-11T03:55:49;1.87;;;1.70;;
5452;SDS011;2749;53.576;9.822;2022-07-11T03:58:15;3.47;;;2.07;;
5452;SDS011;2749;53.576;9.822;2022-07-11T04:00:41;5.23;;;2.87;;
5452;SDS011;2749;53.576;9.822;2022-07-11T04:03:07;3.97;;;2.00;;
5452;SDS011;2749;53.576;9.822;2022-07-11T04:05:33;6.67;;;2.40;;
5452;SDS011;2749;53.576;9.822;2022-07-11T04:08:00;3.97;;;2.00;;
5452;SDS011;2749;53.576;9.822;2022-07-11T04:10:26;2.67;;;1.80;;
5452;SDS011;2749;53.576;9.822;2022-07-11T04:12:51;4.47;;;3.07;;
5452;SDS011;2749;53.576;9.822;2022-07-11T04:15:17;2.70;;;2.27;;
5452;SDS011;2749;53.576;9.822;2022-07-11T04:17:43;2.40;;;1.50;;
5452;SDS011;2749;53.576;9.822;2022-07-11T04:20:09;2.97;;;1.43;;
5452;SDS011;2749;53.576;9.822;2022-07-11T04:22:35;3.90;;;1.73;;
5452;SDS011;2749;53.576;9.822;2022-07-11T04:25:01;3.80;;;1.80;;
5452;SDS011;2749;53.576;9.822;2022-07-11T04:27:27;5.20;;;1.67;;
5452;SDS011;2749;53.576;9.822;2022-07-11T04:29:54;3.40;;;2.40;;
5452;SDS011;2749;53.576;9.822;2022-07-11T04:32:20;2.87;;;1.90;;
5452;SDS011;2749;53.576;9.822;2022-07-11T04:34:46;3.97;;;1.67;;
5452;SDS011;2749;53.576;9.822;2022-07-11T04:37:12;7.47;;;1.80;;
5452;SDS011;2749;53.576;9.822;2022-07-11T04:39:38;3.53;;;1.70;;
5452;SDS011;2749;53.576;9.822;2022-07-11T04:42:04;2.57;;;1.90;;
5452;SDS011;2749;53.576;9.822;2022-07-11T04:44:31;2.83;;;1.90;;
5452;SDS011;2749;53.576;9.822;2022-07-11T04:46:57;4.10;;;2.10;;
5452;SDS011;2749;53.576;9.822;2022-07-11T04:49:23;4.03;;;2.47;;
5452;SDS011;2749;53.576;9.822;2022-07-11T04:51:49;4.47;;;1.20;;
5452;SDS011;2749;53.576;9.822;2022-07-11T04:54:15;7.23;;;1.83;;
5452;SDS011;2749;53.576;9.822;2022-07-11T04:56:41;8.60;;;2.30;;
5452;SDS011;2749;53.576;9.822;2022-07-11T04:59:07;5.60;;;1.87;;
5452;SDS011;2749;53.576;9.822;2022-07-11T05:01:33;5.77;;;2.03;;
5452;SDS011;2749;53.576;9.822;2022-07-11T05:04:00;5.27;;;1.80;;
5452;SDS011;2749;53.576;9.822;2022-07-11T05:06:26;4.00;;;2.57;;
5452;SDS011;2749;53.576;9.822;2022-07-11T05:08:52;4.87;;;2.20;;
5452;SDS011;2749;53.576;9.822;2022-07-11T05:11:19;4.17;;;2.30;;
5452;SDS011;2749;53.576;9.822;2022-07-11T05:13:45;5.90;;;1.80;;
5452;SDS011;2749;53.576;9.822;2022-07-11T05:16:11;4.23;;;2.10;;
5452;SDS011;2749;53.576;9.822;2022-07-11T05:18:37;4.80;;;1.90;;
5452;SDS011;2749;53.576;9.822;2022-07-11T05:21:03;9.60;;;2.00;;
5452;SDS011;2749;53.576;9.822;2022-07-11T05:23:29;5.00;;;2.30;;
5452;SDS011;2749;53.576;9.822;2022-07-11T05:25:55;3.00;;;1.50;;
5452;SDS011;2749;53.576;9.822;2022-07-11T05:28:21;7.93;;;2.20;;
5452;SDS011;2749;53.576;9.822;2022-07-11T05:30:47;7.00;;;2.17;;
5452;SDS011;2749;53.576;9.822;2022-07-11T05:33:13;4.30;;;2.20;;
5452;SDS011;2749;53.576;9.822;2022-07-11T05:35:39;7.97;;;2.53;;
5452;SDS011;2749;53.576;9.822;2022-07-11T05:38:05;4.53;;;1.70;;
5452;SDS011;2749;53.576;9.822;2022-07-11T05:40:31;4.30;;;2.17;;
5452;SDS011;2749;53.576;9.822;2022-07-11T05:42:57;6.47;;;2.10;;
5452;SDS011;2749;53.576;9.822;2022-07-11T05:45:23;4.30;;;2.03;;
5452;SDS011;2749;53.576;9.822;2022-07-11T05:47:49;4.63;;;2.43;;
5452;SDS011;2749;53.576;9.822;2022-07-11T05:50:15;4.47;;;1.73;;
5452;SDS011;2749;53.576;9.822;2022-07-11T05:52:41;9.27;;;1.93;;
5452;SDS011;2749;53.576;9.822;2022-07-11T05:55:07;5.57;;;2.10;;
5452;SDS011;2749;53.576;9.822;2022-07-11T05:57:33;4.87;;;2.40;;
5452;SDS011;2749;53.576;9.822;2022-07-11T05:59:58;3.30;;;1.97;;
5452;SDS011;2749;53.576;9.822;2022-07-11T06:02:24;8.33;;;1.80;;
5452;SDS011;2749;53.576;9.822;2022-07-11T06:04:50;10.50;;;2.00;;
5452;SDS011;2749;53.576;9.822;2022-07-11T06:07:16;4.07;;;1.80;;
5452;SDS011;2749;53.576;9.822;2022-07-11T06:10:02;5.07;;;2.13;;
5452;SDS011;2749;53.576;9.822;2022-07-11T06:12:28;2.77;;;1.60;;
5452;SDS011;2749;53.576;9.822;2022-07-11T06:14:54;4.23;;;1.90;;
5452;SDS011;2749;53.576;9.822;2022-07-11T06:17:20;2.67;;;1.77;;
5452;SDS011;2749;53.576;9.822;2022-07-11T06:19:46;2.70;;;1.30;;
5452;SDS011;2749;53.576;9.822;2022-07-11T06:22:12;3.43;;;2.17;;
5452;SDS011;2749;53.576;9.822;2022-07-11T06:24:39;3.23;;;1.60;;
5452;SDS011;2749;53.576;9.822;2022-07-11T06:27:05;3.60;;;1.33;;
5452;SDS011;2749;53.576;9.822;2022-07-11T06:29:31;5.60;;;1.77;;
5452;SDS011;2749;53.576;9.822;2022-07-11T06:31:57;3.90;;;1.63;;
5452;SDS011;2749;53.576;9.822;2022-07-11T06:34:23;2.70;;;1.17;;
5452;SDS011;2749;53.576;9.822;2022-07-11T06:36:48;2.73;;;2.07;;
5452;SDS011;2749;53.576;9.822;2022-07-11T06:39:15;8.90;;;3.57;;
5452;SDS011;2749;53.576;9.822;2022-07-11T06:41:41;4.30;;;1.50;;
5452;SDS011;2749;53.576;9.822;2022-07-11T06:44:07;1.83;;;1.23;;
5452;SDS011;2749;53.576;9.822;2022-07-11T06:46:33;3.33;;;1.63;;
5452;SDS011;2749;53.576;9.822;2022-07-11T06:48:59;4.60;;;1.33;;
5452;SDS011;2749;53.576;9.822;2022-07-11T06:51:24;4.23;;;2.60;;
5452;SDS011;2749;53.576;9.822;2022-07-11T06:53:51;1.97;;;1.63;;
5452;SDS011;2749;53.576;9.822;2022-07-11T06:56:17;2.57;;;1.50;;
5452;SDS011;2749;53.576;9.822;2022-07-11T06:58:43;3.17;;;1.10;;
5452;SDS011;2749;53.576;9.822;2022-07-11T07:01:09;2.50;;;1.30;;
5452;SDS011;2749;53.576;9.822;2022-07-11T07:03:35;5.27;;;1.50;;
5452;SDS011;2749;53.576;9.822;2022-07-11T07:06:01;2.70;;;1.03;;
5452;SDS011;2749;53.576;9.822;2022-07-11T07:08:28;3.30;;;1.30;;
5452;SDS011;2749;53.576;9.822;2022-07-11T07:10:54;3.03;;;1.43;;
5452;SDS011;2749;53.576;9.822;2022-07-11T07:13:20;3.33;;;1.40;;
5452;SDS011;2749;53.576;9.822;2022-07-11T07:15:50;5.10;;;1.63;;
5452;SDS011;2749;53.576;9.822;2022-07-11T07:18:16;6.10;;;1.50;;
5452;SDS011;2749;53.576;9.822;2022-07-11T07:20:42;4.00;;;1.30;;
5452;SDS011;2749;53.576;9.822;2022-07-11T07:23:08;6.47;;;1.30;;
5452;SDS011;2749;53.576;9.822;2022-07-11T07:25:34;4.37;;;1.40;;
5452;SDS011;2749;53.576;9.822;2022-07-11T07:28:00;5.60;;;2.80;;
5452;SDS011;2749;53.576;9.822;2022-07-11T07:30:26;3.07;;;1.40;;
5452;SDS011;2749;53.576;9.822;2022-07-11T07:32:52;2.23;;;1.57;;
5452;SDS011;2749;53.576;9.822;2022-07-11T07:35:18;1.37;;;1.27;;
5452;SDS011;2749;53.576;9.822;2022-07-11T07:37:44;6.87;;;1.90;;
5452;SDS011;2749;53.576;9.822;2022-07-11T07:40:10;3.43;;;1.77;;
5452;SDS011;2749;53.576;9.822;2022-07-11T07:42:36;3.70;;;1.60;;
5452;SDS011;2749;53.576;9.822;2022-07-11T07:45:02;2.50;;;1.77;;
5452;SDS011;2749;53.576;9.822;2022-07-11T07:47:28;2.60;;;1.13;;
5452;SDS011;2749;53.576;9.822;2022-07-11T07:49:55;3.23;;;1.30;;
5452;SDS011;2749;53.576;9.822;2022-07-11T07:52:21;3.77;;;2.10;;
5452;SDS011;2749;53.576;9.822;2022-07-11T07:54:47;2.30;;;1.07;;
5452;SDS011;2749;53.576;9.822;2022-07-11T07:57:13;5.10;;;1.50;;
5452;SDS011;2749;53.576;9.822;2022-07-11T07:59:39;3.97;;;1.63;;
5452;SDS011;2749;53.576;9.822;2022-07-11T08:02:04;4.10;;;1.50;;
5452;SDS011;2749;53.576;9.822;2022-07-11T08:04:30;7.13;;;2.07;;
5452;SDS011;2749;53.576;9.822;2022-07-11T08:06:56;14.20;;;3.10;;
5452;SDS011;2749;53.576;9.822;2022-07-11T08:09:24;2.90;;;1.20;;
5452;SDS011;2749;53.576;9.822;2022-07-11T08:11:50;2.60;;;1.40;;
5452;SDS011;2749;53.576;9.822;2022-07-11T08:14:16;2.30;;;1.07;;
5452;SDS011;2749;53.576;9.822;2022-07-11T08:16:42;4.97;;;1.60;;
5452;SDS011;2749;53.576;9.822;2022-07-11T08:19:08;2.90;;;1.30;;
5452;SDS011;2749;53.576;9.822;2022-07-11T08:21:36;4.93;;;1.00;;
5452;SDS011;2749;53.576;9.822;2022-07-11T08:24:02;2.13;;;1.00;;
5452;SDS011;2749;53.576;9.822;2022-07-11T08:26:28;2.50;;;1.27;;
5452;SDS011;2749;53.576;9.822;2022-07-11T08:28:54;3.00;;;1.07;;
5452;SDS011;2749;53.576;9.822;2022-07-11T08:31:21;2.13;;;1.60;;
5452;SDS011;2749;53.576;9.822;2022-07-11T08:33:47;3.20;;;1.50;;
5452;SDS011;2749;53.576;9.822;2022-07-11T08:36:13;2.13;;;1.30;;
5452;SDS011;2749;53.576;9.822;2022-07-11T08:41:10;2.40;;;1.63;;
5452;SDS011;2749;53.576;9.822;2022-07-11T08:43:36;2.20;;;1.83;;
5452;SDS011;2749;53.576;9.822;2022-07-11T08:46:02;1.73;;;0.87;;
5452;SDS011;2749;53.576;9.822;2022-07-11T08:48:28;2.43;;;1.30;;
5452;SDS011;2749;53.576;9.822;2022-07-11T08:50:55;2.07;;;1.10;;
5452;SDS011;2749;53.576;9.822;2022-07-11T08:53:21;5.37;;;1.40;;
5452;SDS011;2749;53.576;9.822;2022-07-11T08:55:47;4.30;;;1.00;;
5452;SDS011;2749;53.576;9.822;2022-07-11T08:58:13;3.93;;;1.50;;
5452;SDS011;2749;53.576;9.822;2022-07-11T09:00:40;2.20;;;1.00;;
5452;SDS011;2749;53.576;9.822;2022-07-11T09:03:10;4.93;;;1.53;;
5452;SDS011;2749;53.576;9.822;2022-07-11T09:05:38;1.30;;;0.90;;
5452;SDS011;2749;53.576;9.822;2022-07-11T09:08:04;1.20;;;1.10;;
5452;SDS011;2749;53.576;9.822;2022-07-11T09:10:30;1.73;;;1.00;;
5452;SDS011;2749;53.576;9.822;2022-07-11T09:15:35;1.80;;;1.60;;
5452;SDS011;2749;53.576;9.822;2022-07-11T09:18:02;5.70;;;1.23;;
5452;SDS011;2749;53.576;9.822;2022-07-11T09:20:28;2.10;;;1.30;;
5452;SDS011;2749;53.576;9.822;2022-07-11T09:23:21;1.53;;;1.13;;
5452;SDS011;2749;53.576;9.822;2022-07-11T09:26:05;3.97;;;1.30;;
5452;SDS011;2749;53.576;9.822;2022-07-11T09:28:31;3.80;;;1.70;;
5452;SDS011;2749;53.576;9.822;2022-07-11T09:30:58;1.23;;;1.03;;
5452;SDS011;2749;53.576;9.822;2022-07-11T09:33:24;1.00;;;0.83;;
5452;SDS011;2749;53.576;9.822;2022-07-11T09:35:50;1.93;;;1.40;;
5452;SDS011;2749;53.576;9.822;2022-07-11T09:38:16;2.17;;;1.90;;
5452;SDS011;2749;53.576;9.822;2022-07-11T09:40:43;3.50;;;1.67;;
5452;SDS011;2749;53.576;9.822;2022-07-11T09:43:09;2.03;;;1.70;;
5452;SDS011;2749;53.576;9.822;2022-07-11T09:45:35;1.80;;;1.27;;
5452;SDS011;2749;53.576;9.822;2022-07-11T09:48:07;6.17;;;1.90;;
5452;SDS011;2749;53.576;9.822;2022-07-11T09:50:33;3.57;;;1.60;;
5452;SDS011;2749;53.576;9.822;2022-07-11T09:55:28;2.10;;;1.37;;
5452;SDS011;2749;53.576;9.822;2022-07-11T09:57:54;3.40;;;1.50;;
5452;SDS011;2749;53.576;9.822;2022-07-11T10:00:20;1.37;;;1.27;;
5452;SDS011;2749;53.576;9.822;2022-07-11T10:02:46;2.10;;;1.90;;
5452;SDS011;2749;53.576;9.822;2022-07-11T10:05:14;3.00;;;1.60;;
5452;SDS011;2749;53.576;9.822;2022-07-11T10:07:40;2.10;;;1.47;;
5452;SDS011;2749;53.576;9.822;2022-07-11T10:10:06;2.80;;;1.60;;
5452;SDS011;2749;53.576;9.822;2022-07-11T10:12:32;3.20;;;1.40;;
5452;SDS011;2749;53.576;9.822;2022-07-11T10:15:05;1.47;;;1.27;;
5452;SDS011;2749;53.576;9.822;2022-07-11T10:17:36;3.07;;;1.60;;
5452;SDS011;2749;53.576;9.822;2022-07-11T10:22:39;1.80;;;1.70;;
5452;SDS011;2749;53.576;9.822;2022-07-11T10:33:11;2.40;;;1.80;;
5452;SDS011;2749;53.576;9.822;2022-07-11T10:35:44;3.03;;;2.07;;
5452;SDS011;2749;53.576;9.822;2022-07-11T10:38:10;2.23;;;2.00;;
5452;SDS011;2749;53.576;9.822;2022-07-11T10:48:29;1.90;;;1.80;;
5452;SDS011;2749;53.576;9.822;2022-07-11T10:53:31;4.37;;;2.10;;
5452;SDS011;2749;53.576;9.822;2022-07-11T10:58:40;2.37;;;2.17;;
5452;SDS011;2749;53.576;9.822;2022-07-11T11:01:08;2.00;;;1.90;;
5452;SDS011;2749;53.576;9.822;2022-07-11T11:03:35;4.23;;;1.90;;
5452;SDS011;2749;53.576;9.822;2022-07-11T11:06:01;2.40;;;2.20;;
5452;SDS011;2749;53.576;9.822;2022-07-11T11:11:07;2.17;;;2.07;;
5452;SDS011;2749;53.576;9.822;2022-07-11T11:13:34;3.27;;;2.43;;
5452;SDS011;2749;53.576;9.822;2022-07-11T11:16:01;1.73;;;1.63;;
5452;SDS011;2749;53.576;9.822;2022-07-11T11:18:30;2.50;;;2.30;;
5452;SDS011;2749;53.576;9.822;2022-07-11T11:23:31;1.67;;;1.57;;
5452;SDS011;2749;53.576;9.822;2022-07-11T11:26:07;1.77;;;1.60;;
5452;SDS011;2749;53.576;9.822;2022-07-11T11:28:34;2.40;;;1.70;;
5452;SDS011;2749;53.576;9.822;2022-07-11T11:31:01;3.30;;;1.87;;
5452;SDS011;2749;53.576;9.822;2022-07-11T11:33:28;4.30;;;2.10;;
5452;SDS011;2749;53.576;9.822;2022-07-11T11:36:07;2.13;;;2.00;;
5452;SDS011;2749;53.576;9.822;2022-07-11T11:38:38;2.07;;;1.60;;
5452;SDS011;2749;53.576;9.822;2022-07-11T11:41:04;3.27;;;1.50;;
5452;SDS011;2749;53.576;9.822;2022-07-11T11:43:31;1.57;;;1.47;;
5452;SDS011;2749;53.576;9.822;2022-07-11T11:45:57;2.80;;;1.70;;
5452;SDS011;2749;53.576;9.822;2022-07-11T11:51:01;3.07;;;1.27;;
5452;SDS011;2749;53.576;9.822;2022-07-11T11:53:28;1.70;;;1.53;;
5452;SDS011;2749;53.576;9.822;2022-07-11T11:55:54;1.20;;;1.00;;
5452;SDS011;2749;53.576;9.822;2022-07-11T11:58:20;1.07;;;0.97;;
5452;SDS011;2749;53.576;9.822;2022-07-11T12:00:53;1.47;;;1.07;;
5452;SDS011;2749;53.576;9.822;2022-07-11T12:03:19;2.07;;;1.10;;
5452;SDS011;2749;53.576;9.822;2022-07-11T12:05:58;0.90;;;0.80;;
5452;SDS011;2749;53.576;9.822;2022-07-11T12:08:27;1.97;;;0.90;;
5452;SDS011;2749;53.576;9.822;2022-07-11T12:10:54;0.90;;;0.80;;
5452;SDS011;2749;53.576;9.822;2022-07-11T12:13:20;0.80;;;0.80;;
5452;SDS011;2749;53.576;9.822;2022-07-11T12:15:46;0.97;;;0.87;;
5452;SDS011;2749;53.576;9.822;2022-07-11T12:18:35;1.00;;;0.83;;
5452;SDS011;2749;53.576;9.822;2022-07-11T12:21:08;1.00;;;0.90;;
5452;SDS011;2749;53.576;9.822;2022-07-11T12:23:35;1.50;;;0.80;;
5452;SDS011;2749;53.576;9.822;2022-07-11T12:26:01;3.27;;;0.90;;
5452;SDS011;2749;53.576;9.822;2022-07-11T12:28:27;2.13;;;1.00;;
5452;SDS011;2749;53.576;9.822;2022-07-11T12:30:54;1.50;;;1.00;;
5452;SDS011;2749;53.576;9.822;2022-07-11T12:33:20;0.83;;;0.83;;
5452;SDS011;2749;53.576;9.822;2022-07-11T12:35:59;1.70;;;1.00;;
5452;SDS011;2749;53.576;9.822;2022-07-11T12:38:26;1.77;;;1.10;;
5452;SDS011;2749;53.576;9.822;2022-07-11T12:41:12;1.10;;;0.80;;
5452;SDS011;2749;53.576;9.822;2022-07-11T12:46:30;1.47;;;1.10;;
5452;SDS011;2749;53.576;9.822;2022-07-11T12:48:56;1.07;;;0.97;;
5452;SDS011;2749;53.576;9.822;2022-07-11T12:51:29;1.77;;;0.80;;
5452;SDS011;2749;53.576;9.822;2022-07-11T12:54:02;2.30;;;1.03;;
5452;SDS011;2749;53.576;9.822;2022-07-11T12:56:28;1.47;;;1.00;;
5452;SDS011;2749;53.576;9.822;2022-07-11T12:58:54;2.90;;;1.17;;
5452;SDS011;2749;53.576;9.822;2022-07-11T13:01:20;1.33;;;0.73;;
5452;SDS011;2749;53.576;9.822;2022-07-11T13:03:46;1.43;;;0.90;;
5452;SDS011;2749;53.576;9.822;2022-07-11T13:06:12;0.80;;;0.80;;
5452;SDS011;2749;53.576;9.822;2022-07-11T13:08:37;1.07;;;0.90;;
5452;SDS011;2749;53.576;9.822;2022-07-11T13:11:07;1.27;;;0.90;;
5452;SDS011;2749;53.576;9.822;2022-07-11T13:13:33;1.70;;;0.90;;
5452;SDS011;2749;53.576;9.822;2022-07-11T13:15:59;1.10;;;1.00;;
5452;SDS011;2749;53.576;9.822;2022-07-11T13:18:25;1.20;;;0.80;;
5452;SDS011;2749;53.576;9.822;2022-07-11T13:20:51;1.47;;;1.37;;
5452;SDS011;2749;53.576;9.822;2022-07-11T13:23:19;1.77;;;0.93;;
5452;SDS011;2749;53.576;9.822;2022-07-11T13:25:45;1.03;;;0.77;;
5452;SDS011;2749;53.576;9.822;2022-07-11T13:28:11;1.33;;;0.70;;
5452;SDS011;2749;53.576;9.822;2022-07-11T13:30:36;1.83;;;0.70;;
5452;SDS011;2749;53.576;9.822;2022-07-11T13:33:04;0.80;;;0.60;;
5452;SDS011;2749;53.576;9.822;2022-07-11T13:35:29;1.07;;;0.80;;
5452;SDS011;2749;53.576;9.822;2022-07-11T13:37:55;0.73;;;0.73;;
5452;SDS011;2749;53.576;9.822;2022-07-11T13:40:22;1.23;;;0.60;;
5452;SDS011;2749;53.576;9.822;2022-07-11T13:42:48;0.73;;;0.70;;
5452;SDS011;2749;53.576;9.822;2022-07-11T13:45:19;0.70;;;0.70;;
5452;SDS011;2749;53.576;9.822;2022-07-11T13:47:45;1.40;;;0.70;;
5452;SDS011;2749;53.576;9.822;2022-07-11T13:50:12;0.90;;;0.60;;
5452;SDS011;2749;53.576;9.822;2022-07-11T13:52:38;0.80;;;0.63;;
5452;SDS011;2749;53.576;9.822;2022-07-11T13:55:04;0.70;;;0.70;;
5452;SDS011;2749;53.576;9.822;2022-07-11T13:57:30;0.90;;;0.60;;
5452;SDS011;2749;53.576;9.822;2022-07-11T13:59:56;0.67;;;0.50;;
5452;SDS011;2749;53.576;9.822;2022-07-11T14:02:22;0.60;;;0.60;;
5452;SDS011;2749;53.576;9.822;2022-07-11T14:04:49;0.77;;;0.60;;
5452;SDS011;2749;53.576;9.822;2022-07-11T14:07:15;0.70;;;0.50;;
5452;SDS011;2749;53.576;9.822;2022-07-11T14:09:41;1.33;;;0.60;;
5452;SDS011;2749;53.576;9.822;2022-07-11T14:12:08;0.80;;;0.80;;
5452;SDS011;2749;53.576;9.822;2022-07-11T14:14:34;1.63;;;0.60;;
5452;SDS011;2749;53.576;9.822;2022-07-11T14:17:00;0.90;;;0.80;;
5452;SDS011;2749;53.576;9.822;2022-07-11T14:19:26;1.33;;;0.63;;
5452;SDS011;2749;53.576;9.822;2022-07-11T14:21:53;0.90;;;0.70;;
5452;SDS011;2749;53.576;9.822;2022-07-11T14:24:19;1.23;;;0.70;;
5452;SDS011;2749;53.576;9.822;2022-07-11T14:26:45;0.80;;;0.67;;
5452;SDS011;2749;53.576;9.822;2022-07-11T14:29:11;0.70;;;0.70;;
5452;SDS011;2749;53.576;9.822;2022-07-11T14:31:37;0.70;;;0.60;;
5452;SDS011;2749;53.576;9.822;2022-07-11T14:34:03;0.73;;;0.73;;
5452;SDS011;2749;53.576;9.822;2022-07-11T14:36:29;0.80;;;0.70;;
5452;SDS011;2749;53.576;9.822;2022-07-11T14:38:55;1.27;;;0.50;;
5452;SDS011;2749;53.576;9.822;2022-07-11T14:41:21;1.97;;;0.80;;
5452;SDS011;2749;53.576;9.822;2022-07-11T14:43:47;1.40;;;0.70;;
5452;SDS011;2749;53.576;9.822;2022-07-11T14:46:14;0.70;;;0.60;;
5452;SDS011;2749;53.576;9.822;2022-07-11T14:48:41;0.70;;;0.60;;
5452;SDS011;2749;53.576;9.822;2022-07-11T14:51:08;0.60;;;0.60;;
5452;SDS011;2749;53.576;9.822;2022-07-11T14:53:34;0.70;;;0.70;;
5452;SDS011;2749;53.576;9.822;2022-07-11T14:56:01;1.10;;;0.77;;
5452;SDS011;2749;53.576;9.822;2022-07-11T14:58:27;1.00;;;0.77;;
5452;SDS011;2749;53.576;9.822;2022-07-11T15:00:53;1.50;;;0.60;;
5452;SDS011;2749;53.576;9.822;2022-07-11T15:03:19;0.83;;;0.80;;
5452;SDS011;2749;53.576;9.822;2022-07-11T15:06:07;2.80;;;1.10;;
5452;SDS011;2749;53.576;9.822;2022-07-11T15:08:34;2.00;;;0.73;;
5452;SDS011;2749;53.576;9.822;2022-07-11T15:11:18;2.60;;;1.10;;
5452;SDS011;2749;53.576;9.822;2022-07-11T15:14:04;0.70;;;0.60;;
5452;SDS011;2749;53.576;9.822;2022-07-11T15:16:30;1.07;;;0.60;;
5452;SDS011;2749;53.576;9.822;2022-07-11T15:18:57;0.80;;;0.60;;
5452;SDS011;2749;53.576;9.822;2022-07-11T15:21:23;0.77;;;0.67;;
5452;SDS011;2749;53.576;9.822;2022-07-11T15:23:49;0.97;;;0.57;;
5452;SDS011;2749;53.576;9.822;2022-07-11T15:26:15;2.10;;;0.50;;
5452;SDS011;2749;53.576;9.822;2022-07-11T15:28:42;1.10;;;1.00;;
5452;SDS011;2749;53.576;9.822;2022-07-11T15:31:08;0.63;;;0.50;;
5452;SDS011;2749;53.576;9.822;2022-07-11T15:33:34;2.27;;;0.80;;
5452;SDS011;2749;53.576;9.822;2022-07-11T15:36:00;0.90;;;0.60;;
5452;SDS011;2749;53.576;9.822;2022-07-11T15:38:26;1.00;;;0.70;;
5452;SDS011;2749;53.576;9.822;2022-07-11T15:40:52;0.83;;;0.70;;
5452;SDS011;2749;53.576;9.822;2022-07-11T15:43:18;0.70;;;0.70;;
5452;SDS011;2749;53.576;9.822;2022-07-11T15:45:44;0.70;;;0.50;;
5452;SDS011;2749;53.576;9.822;2022-07-11T15:48:10;1.80;;;0.70;;
5452;SDS011;2749;53.576;9.822;2022-07-11T15:50:36;0.93;;;0.80;;
5452;SDS011;2749;53.576;9.822;2022-07-11T15:53:02;1.03;;;0.70;;
5452;SDS011;2749;53.576;9.822;2022-07-11T15:55:28;0.83;;;0.70;;